<?xml version="1.0" encoding="UTF-8" standalone="no" ?>
<gpx xmlns="http://www.topografix.com/GPX/1/1" xmlns:xsi="http://www.w3.org/2001/XMLSchema-instance" xsi:schemaLocation="http://www.topografix.com/GPX/1/1 http://www.topografix.com/GPX/1/1/gpx.xsd" version="1.1" creator="VisuGPX - https://www.visugpx.com">
  <metadata>
    <name>Lescun Lhers Borce Lescun</name>
  </metadata>
  <trk>
    <name><![CDATA[Lescun Lhers Borce Lescun]]></name>
    <extensions>
      <line xmlns="http://www.topografix.com/GPX/gpx_style/0/2">
        <color>00FFFF</color>
        <width>4</width>
      </line>
    </extensions>
    <trkseg>
      <trkpt lat="42.94645" lon="-0.61128">
        <ele>494.095</ele>
        <time>2021-06-30T09:50:33Z</time>
      </trkpt>
      <trkpt lat="42.94664" lon="-0.61161">
        <ele>494.449</ele>
        <time>2021-06-30T09:50:43Z</time>
      </trkpt>
      <trkpt lat="42.94639" lon="-0.61193">
        <ele>496.023</ele>
        <time>2021-06-30T09:50:53Z</time>
      </trkpt>
      <trkpt lat="42.94543" lon="-0.61106">
        <ele>500.608</ele>
        <time>2021-06-30T09:51:03Z</time>
      </trkpt>
      <trkpt lat="42.94439" lon="-0.61143">
        <ele>503.311</ele>
        <time>2021-06-30T09:51:13Z</time>
      </trkpt>
      <trkpt lat="42.941" lon="-0.61538">
        <ele>525.077</ele>
        <time>2021-06-30T09:51:23Z</time>
      </trkpt>
      <trkpt lat="42.94061" lon="-0.61737">
        <ele>534.591</ele>
        <time>2021-06-30T09:51:33Z</time>
      </trkpt>
      <trkpt lat="42.94078" lon="-0.61747">
        <ele>536.464</ele>
        <time>2021-06-30T09:51:43Z</time>
      </trkpt>
      <trkpt lat="42.94133" lon="-0.61732">
        <ele>541.073</ele>
        <time>2021-06-30T09:51:53Z</time>
      </trkpt>
      <trkpt lat="42.94142" lon="-0.61752">
        <ele>542.163</ele>
        <time>2021-06-30T09:52:03Z</time>
      </trkpt>
      <trkpt lat="42.94032" lon="-0.61823">
        <ele>553.975</ele>
        <time>2021-06-30T09:52:13Z</time>
      </trkpt>
      <trkpt lat="42.94015" lon="-0.61922">
        <ele>563.445</ele>
        <time>2021-06-30T09:52:23Z</time>
      </trkpt>
      <trkpt lat="42.93961" lon="-0.61984">
        <ele>569.777</ele>
        <time>2021-06-30T09:52:33Z</time>
      </trkpt>
      <trkpt lat="42.94021" lon="-0.61946">
        <ele>577.461</ele>
        <time>2021-06-30T09:52:43Z</time>
      </trkpt>
      <trkpt lat="42.94054" lon="-0.61889">
        <ele>584.027</ele>
        <time>2021-06-30T09:52:53Z</time>
      </trkpt>
      <trkpt lat="42.94154" lon="-0.61861">
        <ele>592.608</ele>
        <time>2021-06-30T09:53:03Z</time>
      </trkpt>
      <trkpt lat="42.94155" lon="-0.61883">
        <ele>594.439</ele>
        <time>2021-06-30T09:53:13Z</time>
      </trkpt>
      <trkpt lat="42.94075" lon="-0.61941">
        <ele>602.565</ele>
        <time>2021-06-30T09:53:23Z</time>
      </trkpt>
      <trkpt lat="42.94025" lon="-0.62064">
        <ele>611.969</ele>
        <time>2021-06-30T09:53:33Z</time>
      </trkpt>
      <trkpt lat="42.94035" lon="-0.62075">
        <ele>614.072</ele>
        <time>2021-06-30T09:53:43Z</time>
      </trkpt>
      <trkpt lat="42.94078" lon="-0.61989">
        <ele>620.861</ele>
        <time>2021-06-30T09:53:53Z</time>
      </trkpt>
      <trkpt lat="42.94208" lon="-0.61926">
        <ele>635.871</ele>
        <time>2021-06-30T09:54:03Z</time>
      </trkpt>
      <trkpt lat="42.94238" lon="-0.61866">
        <ele>642.363</ele>
        <time>2021-06-30T09:54:13Z</time>
      </trkpt>
      <trkpt lat="42.94276" lon="-0.6183">
        <ele>646.293</ele>
        <time>2021-06-30T09:54:23Z</time>
      </trkpt>
      <trkpt lat="42.94307" lon="-0.6182">
        <ele>649.217</ele>
        <time>2021-06-30T09:54:33Z</time>
      </trkpt>
      <trkpt lat="42.94337" lon="-0.61839">
        <ele>651.087</ele>
        <time>2021-06-30T09:54:43Z</time>
      </trkpt>
      <trkpt lat="42.94503" lon="-0.61793">
        <ele>656.015</ele>
        <time>2021-06-30T09:54:53Z</time>
      </trkpt>
      <trkpt lat="42.94543" lon="-0.61776">
        <ele>657.008</ele>
        <time>2021-06-30T09:55:03Z</time>
      </trkpt>
      <trkpt lat="42.94577" lon="-0.6173">
        <ele>657.093</ele>
        <time>2021-06-30T09:55:13Z</time>
      </trkpt>
      <trkpt lat="42.94751" lon="-0.61825">
        <ele>666.419</ele>
        <time>2021-06-30T09:55:23Z</time>
      </trkpt>
      <trkpt lat="42.94851" lon="-0.61933">
        <ele>669.093</ele>
        <time>2021-06-30T09:55:33Z</time>
      </trkpt>
      <trkpt lat="42.94905" lon="-0.62063">
        <ele>678.056</ele>
        <time>2021-06-30T09:55:43Z</time>
      </trkpt>
      <trkpt lat="42.94915" lon="-0.62137">
        <ele>679.865</ele>
        <time>2021-06-30T09:55:53Z</time>
      </trkpt>
      <trkpt lat="42.9489" lon="-0.62276">
        <ele>696.485</ele>
        <time>2021-06-30T09:56:03Z</time>
      </trkpt>
      <trkpt lat="42.94905" lon="-0.62381">
        <ele>709.417</ele>
        <time>2021-06-30T09:56:13Z</time>
      </trkpt>
      <trkpt lat="42.94892" lon="-0.62526">
        <ele>724.617</ele>
        <time>2021-06-30T09:56:23Z</time>
      </trkpt>
      <trkpt lat="42.94925" lon="-0.62588">
        <ele>731.821</ele>
        <time>2021-06-30T09:56:33Z</time>
      </trkpt>
      <trkpt lat="42.94952" lon="-0.62607">
        <ele>735.441</ele>
        <time>2021-06-30T09:56:43Z</time>
      </trkpt>
      <trkpt lat="42.94979" lon="-0.62593">
        <ele>739.805</ele>
        <time>2021-06-30T09:56:53Z</time>
      </trkpt>
      <trkpt lat="42.95027" lon="-0.62528">
        <ele>743.708</ele>
        <time>2021-06-30T09:57:03Z</time>
      </trkpt>
      <trkpt lat="42.9507" lon="-0.62555">
        <ele>744.664</ele>
        <time>2021-06-30T09:57:13Z</time>
      </trkpt>
      <trkpt lat="42.95088" lon="-0.62546">
        <ele>744.16</ele>
        <time>2021-06-30T09:57:23Z</time>
      </trkpt>
      <trkpt lat="42.95117" lon="-0.6227">
        <ele>744.934</ele>
        <time>2021-06-30T09:57:33Z</time>
      </trkpt>
      <trkpt lat="42.95209" lon="-0.62174">
        <ele>761.737</ele>
        <time>2021-06-30T09:57:43Z</time>
      </trkpt>
      <trkpt lat="42.95269" lon="-0.62063">
        <ele>779.696</ele>
        <time>2021-06-30T09:57:53Z</time>
      </trkpt>
      <trkpt lat="42.95252" lon="-0.62196">
        <ele>792.626</ele>
        <time>2021-06-30T09:58:03Z</time>
      </trkpt>
      <trkpt lat="42.95217" lon="-0.623">
        <ele>803.288</ele>
        <time>2021-06-30T09:58:13Z</time>
      </trkpt>
      <trkpt lat="42.95217" lon="-0.62353">
        <ele>810.468</ele>
        <time>2021-06-30T09:58:23Z</time>
      </trkpt>
      <trkpt lat="42.95247" lon="-0.6249">
        <ele>828.882</ele>
        <time>2021-06-30T09:58:33Z</time>
      </trkpt>
      <trkpt lat="42.95271" lon="-0.62341">
        <ele>843.643</ele>
        <time>2021-06-30T09:58:43Z</time>
      </trkpt>
      <trkpt lat="42.95319" lon="-0.62316">
        <ele>849.717</ele>
        <time>2021-06-30T09:58:53Z</time>
      </trkpt>
      <trkpt lat="42.95284" lon="-0.62381">
        <ele>859.408</ele>
        <time>2021-06-30T09:59:03Z</time>
      </trkpt>
      <trkpt lat="42.95298" lon="-0.62495">
        <ele>867.73</ele>
        <time>2021-06-30T09:59:13Z</time>
      </trkpt>
      <trkpt lat="42.95288" lon="-0.62573">
        <ele>873.866</ele>
        <time>2021-06-30T09:59:23Z</time>
      </trkpt>
      <trkpt lat="42.95299" lon="-0.62571">
        <ele>875.88</ele>
        <time>2021-06-30T09:59:33Z</time>
      </trkpt>
      <trkpt lat="42.95348" lon="-0.62461">
        <ele>892.863</ele>
        <time>2021-06-30T09:59:43Z</time>
      </trkpt>
      <trkpt lat="42.95338" lon="-0.62628">
        <ele>913.052</ele>
        <time>2021-06-30T09:59:53Z</time>
      </trkpt>
      <trkpt lat="42.95395" lon="-0.62688">
        <ele>922.822</ele>
        <time>2021-06-30T10:00:03Z</time>
      </trkpt>
      <trkpt lat="42.9542" lon="-0.62804">
        <ele>938.514</ele>
        <time>2021-06-30T10:00:13Z</time>
      </trkpt>
      <trkpt lat="42.9538" lon="-0.63081">
        <ele>937.514</ele>
        <time>2021-06-30T10:00:23Z</time>
      </trkpt>
      <trkpt lat="42.95397" lon="-0.63202">
        <ele>932.565</ele>
        <time>2021-06-30T10:00:33Z</time>
      </trkpt>
      <trkpt lat="42.95384" lon="-0.63202">
        <ele>931.668</ele>
        <time>2021-06-30T10:00:43Z</time>
      </trkpt>
      <trkpt lat="42.95338" lon="-0.63142">
        <ele>940.014</ele>
        <time>2021-06-30T10:00:53Z</time>
      </trkpt>
      <trkpt lat="42.95308" lon="-0.63135">
        <ele>948.808</ele>
        <time>2021-06-30T10:01:03Z</time>
      </trkpt>
      <trkpt lat="42.95242" lon="-0.63138">
        <ele>961.778</ele>
        <time>2021-06-30T10:01:13Z</time>
      </trkpt>
      <trkpt lat="42.9519" lon="-0.63176">
        <ele>968.034</ele>
        <time>2021-06-30T10:01:23Z</time>
      </trkpt>
      <trkpt lat="42.9509" lon="-0.63101">
        <ele>978.888</ele>
        <time>2021-06-30T10:01:33Z</time>
      </trkpt>
      <trkpt lat="42.95056" lon="-0.63189">
        <ele>975.511</ele>
        <time>2021-06-30T10:01:43Z</time>
      </trkpt>
      <trkpt lat="42.94914" lon="-0.63336">
        <ele>962.07</ele>
        <time>2021-06-30T10:01:53Z</time>
      </trkpt>
      <trkpt lat="42.94854" lon="-0.636">
        <ele>978.92</ele>
        <time>2021-06-30T10:02:03Z</time>
      </trkpt>
      <trkpt lat="42.948" lon="-0.63671">
        <ele>988.012</ele>
        <time>2021-06-30T10:02:13Z</time>
      </trkpt>
      <trkpt lat="42.94803" lon="-0.63851">
        <ele>991.152</ele>
        <time>2021-06-30T10:02:23Z</time>
      </trkpt>
      <trkpt lat="42.94747" lon="-0.63871">
        <ele>983.592</ele>
        <time>2021-06-30T10:02:33Z</time>
      </trkpt>
      <trkpt lat="42.94706" lon="-0.63913">
        <ele>963.773</ele>
        <time>2021-06-30T10:02:43Z</time>
      </trkpt>
      <trkpt lat="42.9473" lon="-0.6382">
        <ele>950.22</ele>
        <time>2021-06-30T10:02:53Z</time>
      </trkpt>
      <trkpt lat="42.94713" lon="-0.63807">
        <ele>944.108</ele>
        <time>2021-06-30T10:03:03Z</time>
      </trkpt>
      <trkpt lat="42.94704" lon="-0.63816">
        <ele>942.051</ele>
        <time>2021-06-30T10:03:13Z</time>
      </trkpt>
      <trkpt lat="42.94689" lon="-0.63791">
        <ele>940.577</ele>
        <time>2021-06-30T10:03:23Z</time>
      </trkpt>
      <trkpt lat="42.94684" lon="-0.6367">
        <ele>922.041</ele>
        <time>2021-06-30T10:03:33Z</time>
      </trkpt>
      <trkpt lat="42.94646" lon="-0.63632">
        <ele>923.674</ele>
        <time>2021-06-30T10:03:43Z</time>
      </trkpt>
      <trkpt lat="42.94627" lon="-0.63634">
        <ele>927.013</ele>
        <time>2021-06-30T10:03:53Z</time>
      </trkpt>
      <trkpt lat="42.946" lon="-0.63546">
        <ele>932.063</ele>
        <time>2021-06-30T10:04:03Z</time>
      </trkpt>
      <trkpt lat="42.9459" lon="-0.63435">
        <ele>932.885</ele>
        <time>2021-06-30T10:04:13Z</time>
      </trkpt>
      <trkpt lat="42.94597" lon="-0.63267">
        <ele>930.065</ele>
        <time>2021-06-30T10:04:23Z</time>
      </trkpt>
      <trkpt lat="42.94623" lon="-0.63205">
        <ele>931.084</ele>
        <time>2021-06-30T10:04:33Z</time>
      </trkpt>
      <trkpt lat="42.94604" lon="-0.63052">
        <ele>944.607</ele>
        <time>2021-06-30T10:04:43Z</time>
      </trkpt>
      <trkpt lat="42.94615" lon="-0.6303">
        <ele>952.617</ele>
        <time>2021-06-30T10:04:53Z</time>
      </trkpt>
      <trkpt lat="42.94606" lon="-0.62991">
        <ele>956.708</ele>
        <time>2021-06-30T10:05:03Z</time>
      </trkpt>
      <trkpt lat="42.94516" lon="-0.62829">
        <ele>973.02</ele>
        <time>2021-06-30T10:05:13Z</time>
      </trkpt>
      <trkpt lat="42.94503" lon="-0.62714">
        <ele>985.096</ele>
        <time>2021-06-30T10:05:23Z</time>
      </trkpt>
      <trkpt lat="42.9448" lon="-0.62679">
        <ele>993.27</ele>
        <time>2021-06-30T10:05:33Z</time>
      </trkpt>
      <trkpt lat="42.94468" lon="-0.6268">
        <ele>994.093</ele>
        <time>2021-06-30T10:05:43Z</time>
      </trkpt>
      <trkpt lat="42.94479" lon="-0.6265">
        <ele>1000.032</ele>
        <time>2021-06-30T10:05:53Z</time>
      </trkpt>
      <trkpt lat="42.9446" lon="-0.62618">
        <ele>1007.482</ele>
        <time>2021-06-30T10:06:03Z</time>
      </trkpt>
      <trkpt lat="42.94463" lon="-0.62555">
        <ele>1014.254</ele>
        <time>2021-06-30T10:06:13Z</time>
      </trkpt>
      <trkpt lat="42.94499" lon="-0.62477">
        <ele>1032.624</ele>
        <time>2021-06-30T10:06:23Z</time>
      </trkpt>
      <trkpt lat="42.94488" lon="-0.62424">
        <ele>1043.099</ele>
        <time>2021-06-30T10:06:33Z</time>
      </trkpt>
      <trkpt lat="42.94475" lon="-0.62417">
        <ele>1043.007</ele>
        <time>2021-06-30T10:06:43Z</time>
      </trkpt>
      <trkpt lat="42.94321" lon="-0.62476">
        <ele>1033.127</ele>
        <time>2021-06-30T10:06:53Z</time>
      </trkpt>
      <trkpt lat="42.94317" lon="-0.62468">
        <ele>1031.908</ele>
        <time>2021-06-30T10:07:03Z</time>
      </trkpt>
      <trkpt lat="42.94316" lon="-0.62499">
        <ele>1025.971</ele>
        <time>2021-06-30T10:07:13Z</time>
      </trkpt>
      <trkpt lat="42.94308" lon="-0.62489">
        <ele>1023.417</ele>
        <time>2021-06-30T10:07:23Z</time>
      </trkpt>
      <trkpt lat="42.9423" lon="-0.62638">
        <ele>994.931</ele>
        <time>2021-06-30T10:07:33Z</time>
      </trkpt>
      <trkpt lat="42.94125" lon="-0.62675">
        <ele>970.854</ele>
        <time>2021-06-30T10:07:43Z</time>
      </trkpt>
      <trkpt lat="42.94001" lon="-0.62679">
        <ele>960.513</ele>
        <time>2021-06-30T10:07:53Z</time>
      </trkpt>
      <trkpt lat="42.93968" lon="-0.62704">
        <ele>956.853</ele>
        <time>2021-06-30T10:08:03Z</time>
      </trkpt>
      <trkpt lat="42.93852" lon="-0.62693">
        <ele>938.145</ele>
        <time>2021-06-30T10:08:13Z</time>
      </trkpt>
      <trkpt lat="42.93791" lon="-0.62756">
        <ele>931.055</ele>
        <time>2021-06-30T10:08:23Z</time>
      </trkpt>
      <trkpt lat="42.93746" lon="-0.6276">
        <ele>931.038</ele>
        <time>2021-06-30T10:08:33Z</time>
      </trkpt>
      <trkpt lat="42.93712" lon="-0.62744">
        <ele>934.47</ele>
        <time>2021-06-30T10:08:43Z</time>
      </trkpt>
      <trkpt lat="42.93642" lon="-0.62775">
        <ele>936.017</ele>
        <time>2021-06-30T10:08:53Z</time>
      </trkpt>
      <trkpt lat="42.93567" lon="-0.62887">
        <ele>930.908</ele>
        <time>2021-06-30T10:09:03Z</time>
      </trkpt>
      <trkpt lat="42.93593" lon="-0.62979">
        <ele>927.445</ele>
        <time>2021-06-30T10:09:13Z</time>
      </trkpt>
      <trkpt lat="42.9359" lon="-0.63068">
        <ele>924.471</ele>
        <time>2021-06-30T10:09:23Z</time>
      </trkpt>
      <trkpt lat="42.93605" lon="-0.63151">
        <ele>918.445</ele>
        <time>2021-06-30T10:09:33Z</time>
      </trkpt>
      <trkpt lat="42.93572" lon="-0.63252">
        <ele>913.258</ele>
        <time>2021-06-30T10:09:43Z</time>
      </trkpt>
      <trkpt lat="42.93494" lon="-0.63372">
        <ele>916.187</ele>
        <time>2021-06-30T10:09:53Z</time>
      </trkpt>
      <trkpt lat="42.93477" lon="-0.63377">
        <ele>914.987</ele>
        <time>2021-06-30T10:10:03Z</time>
      </trkpt>
      <trkpt lat="42.93475" lon="-0.63401">
        <ele>911.639</ele>
        <time>2021-06-30T10:10:13Z</time>
      </trkpt>
      <trkpt lat="42.93408" lon="-0.635">
        <ele>906.419</ele>
        <time>2021-06-30T10:10:23Z</time>
      </trkpt>
      <trkpt lat="42.93313" lon="-0.63471">
        <ele>897.993</ele>
        <time>2021-06-30T10:10:33Z</time>
      </trkpt>
      <trkpt lat="42.93277" lon="-0.63506">
        <ele>892.965</ele>
        <time>2021-06-30T10:10:43Z</time>
      </trkpt>
      <trkpt lat="42.93238" lon="-0.63499">
        <ele>888.521</ele>
        <time>2021-06-30T10:10:53Z</time>
      </trkpt>
      <trkpt lat="42.93173" lon="-0.63553">
        <ele>875.908</ele>
        <time>2021-06-30T10:11:03Z</time>
      </trkpt>
      <trkpt lat="42.9314" lon="-0.63627">
        <ele>864.971</ele>
        <time>2021-06-30T10:11:13Z</time>
      </trkpt>
      <trkpt lat="42.93118" lon="-0.63549">
        <ele>862.367</ele>
        <time>2021-06-30T10:11:23Z</time>
      </trkpt>
      <trkpt lat="42.93095" lon="-0.63627">
        <ele>855.841</ele>
        <time>2021-06-30T10:11:33Z</time>
      </trkpt>
      <trkpt lat="42.93043" lon="-0.6368">
        <ele>848.264</ele>
        <time>2021-06-30T10:11:43Z</time>
      </trkpt>
      <trkpt lat="42.92978" lon="-0.6382">
        <ele>837.483</ele>
        <time>2021-06-30T10:11:53Z</time>
      </trkpt>
      <trkpt lat="42.92972" lon="-0.64008">
        <ele>830.223</ele>
        <time>2021-06-30T10:12:03Z</time>
      </trkpt>
      <trkpt lat="42.92952" lon="-0.64087">
        <ele>825.055</ele>
        <time>2021-06-30T10:12:13Z</time>
      </trkpt>
      <trkpt lat="42.92941" lon="-0.64091">
        <ele>825.075</ele>
        <time>2021-06-30T10:12:23Z</time>
      </trkpt>
      <trkpt lat="42.92929" lon="-0.6407">
        <ele>825.098</ele>
        <time>2021-06-30T10:12:33Z</time>
      </trkpt>
      <trkpt lat="42.92907" lon="-0.63936">
        <ele>835.815</ele>
        <time>2021-06-30T10:12:43Z</time>
      </trkpt>
      <trkpt lat="42.92875" lon="-0.63808">
        <ele>847.126</ele>
        <time>2021-06-30T10:12:53Z</time>
      </trkpt>
      <trkpt lat="42.92862" lon="-0.63799">
        <ele>848.508</ele>
        <time>2021-06-30T10:13:03Z</time>
      </trkpt>
      <trkpt lat="42.92882" lon="-0.63967">
        <ele>854.751</ele>
        <time>2021-06-30T10:13:13Z</time>
      </trkpt>
      <trkpt lat="42.92804" lon="-0.64141">
        <ele>862.497</ele>
        <time>2021-06-30T10:13:23Z</time>
      </trkpt>
      <trkpt lat="42.92773" lon="-0.64135">
        <ele>864.021</ele>
        <time>2021-06-30T10:13:33Z</time>
      </trkpt>
      <trkpt lat="42.92749" lon="-0.64039">
        <ele>866.864</ele>
        <time>2021-06-30T10:13:43Z</time>
      </trkpt>
      <trkpt lat="42.92698" lon="-0.64044">
        <ele>870.013</ele>
        <time>2021-06-30T10:13:53Z</time>
      </trkpt>
      <trkpt lat="42.92593" lon="-0.64105">
        <ele>880.263</ele>
        <time>2021-06-30T10:14:03Z</time>
      </trkpt>
      <trkpt lat="42.92551" lon="-0.64037">
        <ele>885.435</ele>
        <time>2021-06-30T10:14:13Z</time>
      </trkpt>
      <trkpt lat="42.92476" lon="-0.64012">
        <ele>890.195</ele>
        <time>2021-06-30T10:14:23Z</time>
      </trkpt>
      <trkpt lat="42.92359" lon="-0.64058">
        <ele>904.634</ele>
        <time>2021-06-30T10:14:33Z</time>
      </trkpt>
      <trkpt lat="42.92294" lon="-0.64182">
        <ele>918.055</ele>
        <time>2021-06-30T10:14:43Z</time>
      </trkpt>
      <trkpt lat="42.92279" lon="-0.6409">
        <ele>925.81</ele>
        <time>2021-06-30T10:14:53Z</time>
      </trkpt>
      <trkpt lat="42.92305" lon="-0.64042">
        <ele>928.608</ele>
        <time>2021-06-30T10:15:03Z</time>
      </trkpt>
      <trkpt lat="42.92316" lon="-0.6388">
        <ele>941.985</ele>
        <time>2021-06-30T10:15:13Z</time>
      </trkpt>
      <trkpt lat="42.92302" lon="-0.63845">
        <ele>944.811</ele>
        <time>2021-06-30T10:15:23Z</time>
      </trkpt>
      <trkpt lat="42.92276" lon="-0.6384">
        <ele>947.845</ele>
        <time>2021-06-30T10:15:33Z</time>
      </trkpt>
      <trkpt lat="42.92256" lon="-0.63872">
        <ele>952.428</ele>
        <time>2021-06-30T10:15:43Z</time>
      </trkpt>
      <trkpt lat="42.92257" lon="-0.63925">
        <ele>955.657</ele>
        <time>2021-06-30T10:15:53Z</time>
      </trkpt>
      <trkpt lat="42.92243" lon="-0.63928">
        <ele>956.747</ele>
        <time>2021-06-30T10:16:03Z</time>
      </trkpt>
      <trkpt lat="42.92226" lon="-0.6388">
        <ele>958.839</ele>
        <time>2021-06-30T10:16:13Z</time>
      </trkpt>
      <trkpt lat="42.92233" lon="-0.63793">
        <ele>964.499</ele>
        <time>2021-06-30T10:16:23Z</time>
      </trkpt>
      <trkpt lat="42.92169" lon="-0.63948">
        <ele>976.687</ele>
        <time>2021-06-30T10:16:33Z</time>
      </trkpt>
      <trkpt lat="42.92107" lon="-0.64025">
        <ele>985.442</ele>
        <time>2021-06-30T10:16:43Z</time>
      </trkpt>
      <trkpt lat="42.92008" lon="-0.6419">
        <ele>1002.426</ele>
        <time>2021-06-30T10:16:53Z</time>
      </trkpt>
      <trkpt lat="42.92028" lon="-0.64012">
        <ele>1017.308</ele>
        <time>2021-06-30T10:17:03Z</time>
      </trkpt>
      <trkpt lat="42.9206" lon="-0.63974">
        <ele>1018.07</ele>
        <time>2021-06-30T10:17:13Z</time>
      </trkpt>
      <trkpt lat="42.92126" lon="-0.63834">
        <ele>1012.836</ele>
        <time>2021-06-30T10:17:23Z</time>
      </trkpt>
      <trkpt lat="42.92169" lon="-0.63688">
        <ele>1007.99</ele>
        <time>2021-06-30T10:17:33Z</time>
      </trkpt>
      <trkpt lat="42.92209" lon="-0.63606">
        <ele>1005.313</ele>
        <time>2021-06-30T10:17:43Z</time>
      </trkpt>
      <trkpt lat="42.92226" lon="-0.63508">
        <ele>1003.032</ele>
        <time>2021-06-30T10:17:53Z</time>
      </trkpt>
      <trkpt lat="42.92298" lon="-0.63279">
        <ele>1002.742</ele>
        <time>2021-06-30T10:18:03Z</time>
      </trkpt>
      <trkpt lat="42.92375" lon="-0.63199">
        <ele>1002.274</ele>
        <time>2021-06-30T10:18:13Z</time>
      </trkpt>
      <trkpt lat="42.92387" lon="-0.63122">
        <ele>1011.714</ele>
        <time>2021-06-30T10:18:23Z</time>
      </trkpt>
      <trkpt lat="42.92404" lon="-0.63105">
        <ele>1013.842</ele>
        <time>2021-06-30T10:18:33Z</time>
      </trkpt>
      <trkpt lat="42.92395" lon="-0.63075">
        <ele>1020.022</ele>
        <time>2021-06-30T10:18:43Z</time>
      </trkpt>
      <trkpt lat="42.92365" lon="-0.6306">
        <ele>1022.614</ele>
        <time>2021-06-30T10:18:53Z</time>
      </trkpt>
      <trkpt lat="42.9236" lon="-0.63029">
        <ele>1023.008</ele>
        <time>2021-06-30T10:19:03Z</time>
      </trkpt>
      <trkpt lat="42.92308" lon="-0.63004">
        <ele>1016.786</ele>
        <time>2021-06-30T10:19:13Z</time>
      </trkpt>
      <trkpt lat="42.92304" lon="-0.62988">
        <ele>1017.562</ele>
        <time>2021-06-30T10:19:23Z</time>
      </trkpt>
      <trkpt lat="42.92341" lon="-0.62939">
        <ele>1027.236</ele>
        <time>2021-06-30T10:19:33Z</time>
      </trkpt>
      <trkpt lat="42.92351" lon="-0.62895">
        <ele>1030.069</ele>
        <time>2021-06-30T10:19:43Z</time>
      </trkpt>
      <trkpt lat="42.92432" lon="-0.62811">
        <ele>1030.028</ele>
        <time>2021-06-30T10:19:53Z</time>
      </trkpt>
      <trkpt lat="42.92448" lon="-0.62753">
        <ele>1027.618</ele>
        <time>2021-06-30T10:20:03Z</time>
      </trkpt>
      <trkpt lat="42.92442" lon="-0.62763">
        <ele>1027.19</ele>
        <time>2021-06-30T10:20:13Z</time>
      </trkpt>
      <trkpt lat="42.92462" lon="-0.62748">
        <ele>1028.02</ele>
        <time>2021-06-30T10:20:23Z</time>
      </trkpt>
      <trkpt lat="42.92473" lon="-0.62757">
        <ele>1028.026</ele>
        <time>2021-06-30T10:20:33Z</time>
      </trkpt>
      <trkpt lat="42.92444" lon="-0.62761">
        <ele>1028.047</ele>
        <time>2021-06-30T10:20:43Z</time>
      </trkpt>
      <trkpt lat="42.92462" lon="-0.62756">
        <ele>1027.611</ele>
        <time>2021-06-30T10:20:53Z</time>
      </trkpt>
      <trkpt lat="42.9245" lon="-0.62752">
        <ele>1027.408</ele>
        <time>2021-06-30T10:21:03Z</time>
      </trkpt>
      <trkpt lat="42.92488" lon="-0.62684">
        <ele>1028.044</ele>
        <time>2021-06-30T10:21:13Z</time>
      </trkpt>
      <trkpt lat="42.92508" lon="-0.62587">
        <ele>1027.76</ele>
        <time>2021-06-30T10:21:23Z</time>
      </trkpt>
      <trkpt lat="42.92552" lon="-0.62471">
        <ele>1022.284</ele>
        <time>2021-06-30T10:21:33Z</time>
      </trkpt>
      <trkpt lat="42.9255" lon="-0.62441">
        <ele>1025.047</ele>
        <time>2021-06-30T10:21:43Z</time>
      </trkpt>
      <trkpt lat="42.92462" lon="-0.62407">
        <ele>1025.086</ele>
        <time>2021-06-30T10:21:53Z</time>
      </trkpt>
      <trkpt lat="42.9244" lon="-0.62419">
        <ele>1025.486</ele>
        <time>2021-06-30T10:22:03Z</time>
      </trkpt>
      <trkpt lat="42.92368" lon="-0.62516">
        <ele>1028.098</ele>
        <time>2021-06-30T10:22:13Z</time>
      </trkpt>
      <trkpt lat="42.92315" lon="-0.6252">
        <ele>1028.078</ele>
        <time>2021-06-30T10:22:23Z</time>
      </trkpt>
      <trkpt lat="42.92232" lon="-0.62496">
        <ele>1030.058</ele>
        <time>2021-06-30T10:22:33Z</time>
      </trkpt>
      <trkpt lat="42.92082" lon="-0.62577">
        <ele>1027.452</ele>
        <time>2021-06-30T10:22:43Z</time>
      </trkpt>
      <trkpt lat="42.92047" lon="-0.62581">
        <ele>1026.517</ele>
        <time>2021-06-30T10:22:53Z</time>
      </trkpt>
      <trkpt lat="42.9201" lon="-0.6255">
        <ele>1025.108</ele>
        <time>2021-06-30T10:23:03Z</time>
      </trkpt>
      <trkpt lat="42.9195" lon="-0.62432">
        <ele>1023.597</ele>
        <time>2021-06-30T10:23:13Z</time>
      </trkpt>
      <trkpt lat="42.91846" lon="-0.62281">
        <ele>1024.613</ele>
        <time>2021-06-30T10:23:23Z</time>
      </trkpt>
      <trkpt lat="42.91771" lon="-0.62272">
        <ele>1025.027</ele>
        <time>2021-06-30T10:23:33Z</time>
      </trkpt>
      <trkpt lat="42.91669" lon="-0.6229">
        <ele>1027.06</ele>
        <time>2021-06-30T10:23:43Z</time>
      </trkpt>
      <trkpt lat="42.91609" lon="-0.62273">
        <ele>1029.059</ele>
        <time>2021-06-30T10:23:53Z</time>
      </trkpt>
      <trkpt lat="42.91577" lon="-0.62285">
        <ele>1031.049</ele>
        <time>2021-06-30T10:24:03Z</time>
      </trkpt>
      <trkpt lat="42.91543" lon="-0.6227">
        <ele>1031.041</ele>
        <time>2021-06-30T10:24:13Z</time>
      </trkpt>
      <trkpt lat="42.91497" lon="-0.62278">
        <ele>1030.121</ele>
        <time>2021-06-30T10:24:23Z</time>
      </trkpt>
      <trkpt lat="42.91468" lon="-0.62267">
        <ele>1029.196</ele>
        <time>2021-06-30T10:24:33Z</time>
      </trkpt>
      <trkpt lat="42.91402" lon="-0.62093">
        <ele>1006.431</ele>
        <time>2021-06-30T10:24:43Z</time>
      </trkpt>
      <trkpt lat="42.91314" lon="-0.61996">
        <ele>1005.024</ele>
        <time>2021-06-30T10:24:53Z</time>
      </trkpt>
      <trkpt lat="42.91237" lon="-0.62021">
        <ele>1006.008</ele>
        <time>2021-06-30T10:25:03Z</time>
      </trkpt>
      <trkpt lat="42.91202" lon="-0.62003">
        <ele>1005.491</ele>
        <time>2021-06-30T10:25:13Z</time>
      </trkpt>
      <trkpt lat="42.91147" lon="-0.61851">
        <ele>1015.357</ele>
        <time>2021-06-30T10:25:23Z</time>
      </trkpt>
      <trkpt lat="42.91341" lon="-0.61693">
        <ele>1017.091</ele>
        <time>2021-06-30T10:25:33Z</time>
      </trkpt>
      <trkpt lat="42.91497" lon="-0.61494">
        <ele>1032.094</ele>
        <time>2021-06-30T10:25:43Z</time>
      </trkpt>
      <trkpt lat="42.91602" lon="-0.61483">
        <ele>1042.553</ele>
        <time>2021-06-30T10:25:53Z</time>
      </trkpt>
      <trkpt lat="42.91741" lon="-0.61322">
        <ele>1064.893</ele>
        <time>2021-06-30T10:26:03Z</time>
      </trkpt>
      <trkpt lat="42.91852" lon="-0.61229">
        <ele>1080.475</ele>
        <time>2021-06-30T10:26:13Z</time>
      </trkpt>
      <trkpt lat="42.91935" lon="-0.61178">
        <ele>1090.055</ele>
        <time>2021-06-30T10:26:23Z</time>
      </trkpt>
      <trkpt lat="42.9205" lon="-0.61181">
        <ele>1101.732</ele>
        <time>2021-06-30T10:26:33Z</time>
      </trkpt>
      <trkpt lat="42.92058" lon="-0.61168">
        <ele>1103.092</ele>
        <time>2021-06-30T10:26:43Z</time>
      </trkpt>
      <trkpt lat="42.91934" lon="-0.61127">
        <ele>1115.511</ele>
        <time>2021-06-30T10:26:53Z</time>
      </trkpt>
      <trkpt lat="42.91837" lon="-0.61145">
        <ele>1129.408</ele>
        <time>2021-06-30T10:27:03Z</time>
      </trkpt>
      <trkpt lat="42.91775" lon="-0.6113">
        <ele>1138.245</ele>
        <time>2021-06-30T10:27:13Z</time>
      </trkpt>
      <trkpt lat="42.91645" lon="-0.61212">
        <ele>1159.081</ele>
        <time>2021-06-30T10:27:23Z</time>
      </trkpt>
      <trkpt lat="42.91591" lon="-0.61287">
        <ele>1170.875</ele>
        <time>2021-06-30T10:27:33Z</time>
      </trkpt>
      <trkpt lat="42.91354" lon="-0.61033">
        <ele>1209.058</ele>
        <time>2021-06-30T10:27:43Z</time>
      </trkpt>
      <trkpt lat="42.91314" lon="-0.6103">
        <ele>1213.647</ele>
        <time>2021-06-30T10:27:53Z</time>
      </trkpt>
      <trkpt lat="42.91257" lon="-0.60994">
        <ele>1220.747</ele>
        <time>2021-06-30T10:28:03Z</time>
      </trkpt>
      <trkpt lat="42.91214" lon="-0.61038">
        <ele>1224.289</ele>
        <time>2021-06-30T10:28:13Z</time>
      </trkpt>
      <trkpt lat="42.91178" lon="-0.6111">
        <ele>1231.959</ele>
        <time>2021-06-30T10:28:23Z</time>
      </trkpt>
      <trkpt lat="42.91081" lon="-0.61145">
        <ele>1243.853</ele>
        <time>2021-06-30T10:28:33Z</time>
      </trkpt>
      <trkpt lat="42.91047" lon="-0.61212">
        <ele>1250.004</ele>
        <time>2021-06-30T10:28:43Z</time>
      </trkpt>
      <trkpt lat="42.91035" lon="-0.61203">
        <ele>1250.414</ele>
        <time>2021-06-30T10:28:53Z</time>
      </trkpt>
      <trkpt lat="42.91062" lon="-0.61166">
        <ele>1256.008</ele>
        <time>2021-06-30T10:29:03Z</time>
      </trkpt>
      <trkpt lat="42.91068" lon="-0.61124">
        <ele>1259.257</ele>
        <time>2021-06-30T10:29:13Z</time>
      </trkpt>
      <trkpt lat="42.91116" lon="-0.61035">
        <ele>1265.243</ele>
        <time>2021-06-30T10:29:23Z</time>
      </trkpt>
      <trkpt lat="42.91112" lon="-0.61019">
        <ele>1267.097</ele>
        <time>2021-06-30T10:29:33Z</time>
      </trkpt>
      <trkpt lat="42.91023" lon="-0.61105">
        <ele>1282.09</ele>
        <time>2021-06-30T10:29:43Z</time>
      </trkpt>
      <trkpt lat="42.90941" lon="-0.61109">
        <ele>1293.549</ele>
        <time>2021-06-30T10:29:53Z</time>
      </trkpt>
      <trkpt lat="42.90842" lon="-0.6116">
        <ele>1305.319</ele>
        <time>2021-06-30T10:30:03Z</time>
      </trkpt>
      <trkpt lat="42.90866" lon="-0.61101">
        <ele>1309.771</ele>
        <time>2021-06-30T10:30:13Z</time>
      </trkpt>
      <trkpt lat="42.90909" lon="-0.61085">
        <ele>1315.861</ele>
        <time>2021-06-30T10:30:23Z</time>
      </trkpt>
      <trkpt lat="42.91002" lon="-0.6099">
        <ele>1330.099</ele>
        <time>2021-06-30T10:30:33Z</time>
      </trkpt>
      <trkpt lat="42.91007" lon="-0.60998">
        <ele>1331.007</ele>
        <time>2021-06-30T10:30:43Z</time>
      </trkpt>
      <trkpt lat="42.91032" lon="-0.60957">
        <ele>1333.627</ele>
        <time>2021-06-30T10:30:53Z</time>
      </trkpt>
      <trkpt lat="42.91029" lon="-0.6094">
        <ele>1336.008</ele>
        <time>2021-06-30T10:31:03Z</time>
      </trkpt>
      <trkpt lat="42.90991" lon="-0.60985">
        <ele>1338.621</ele>
        <time>2021-06-30T10:31:13Z</time>
      </trkpt>
      <trkpt lat="42.9092" lon="-0.60991">
        <ele>1343.857</ele>
        <time>2021-06-30T10:31:23Z</time>
      </trkpt>
      <trkpt lat="42.90784" lon="-0.61055">
        <ele>1364.311</ele>
        <time>2021-06-30T10:31:33Z</time>
      </trkpt>
      <trkpt lat="42.90658" lon="-0.61243">
        <ele>1389.654</ele>
        <time>2021-06-30T10:31:43Z</time>
      </trkpt>
      <trkpt lat="42.9059" lon="-0.61257">
        <ele>1397.243</ele>
        <time>2021-06-30T10:31:53Z</time>
      </trkpt>
      <trkpt lat="42.90616" lon="-0.6124">
        <ele>1399.433</ele>
        <time>2021-06-30T10:32:03Z</time>
      </trkpt>
      <trkpt lat="42.90632" lon="-0.61203">
        <ele>1404.265</ele>
        <time>2021-06-30T10:32:13Z</time>
      </trkpt>
      <trkpt lat="42.90636" lon="-0.61113">
        <ele>1414.015</ele>
        <time>2021-06-30T10:32:23Z</time>
      </trkpt>
      <trkpt lat="42.90676" lon="-0.60975">
        <ele>1434.049</ele>
        <time>2021-06-30T10:32:33Z</time>
      </trkpt>
      <trkpt lat="42.9071" lon="-0.60891">
        <ele>1445.802</ele>
        <time>2021-06-30T10:32:43Z</time>
      </trkpt>
      <trkpt lat="42.90755" lon="-0.60853">
        <ele>1453.422</ele>
        <time>2021-06-30T10:32:53Z</time>
      </trkpt>
      <trkpt lat="42.90775" lon="-0.60817">
        <ele>1458.808</ele>
        <time>2021-06-30T10:33:03Z</time>
      </trkpt>
      <trkpt lat="42.90789" lon="-0.60727">
        <ele>1466.016</ele>
        <time>2021-06-30T10:33:13Z</time>
      </trkpt>
      <trkpt lat="42.90671" lon="-0.60787">
        <ele>1477.412</ele>
        <time>2021-06-30T10:33:23Z</time>
      </trkpt>
      <trkpt lat="42.90661" lon="-0.60776">
        <ele>1478.596</ele>
        <time>2021-06-30T10:33:33Z</time>
      </trkpt>
      <trkpt lat="42.90749" lon="-0.60676">
        <ele>1493.429</ele>
        <time>2021-06-30T10:33:43Z</time>
      </trkpt>
      <trkpt lat="42.90742" lon="-0.60609">
        <ele>1501.028</ele>
        <time>2021-06-30T10:33:53Z</time>
      </trkpt>
      <trkpt lat="42.90774" lon="-0.6056">
        <ele>1507.828</ele>
        <time>2021-06-30T10:34:03Z</time>
      </trkpt>
      <trkpt lat="42.90929" lon="-0.60439">
        <ele>1536.85</ele>
        <time>2021-06-30T10:34:13Z</time>
      </trkpt>
      <trkpt lat="42.91035" lon="-0.60227">
        <ele>1567.28</ele>
        <time>2021-06-30T10:34:23Z</time>
      </trkpt>
      <trkpt lat="42.91096" lon="-0.60193">
        <ele>1578.145</ele>
        <time>2021-06-30T10:34:33Z</time>
      </trkpt>
      <trkpt lat="42.91286" lon="-0.60214">
        <ele>1606.247</ele>
        <time>2021-06-30T10:34:43Z</time>
      </trkpt>
      <trkpt lat="42.91391" lon="-0.60166">
        <ele>1622.811</ele>
        <time>2021-06-30T10:34:53Z</time>
      </trkpt>
      <trkpt lat="42.91479" lon="-0.60152">
        <ele>1635.008</ele>
        <time>2021-06-30T10:35:03Z</time>
      </trkpt>
      <trkpt lat="42.91528" lon="-0.60112">
        <ele>1645.086</ele>
        <time>2021-06-30T10:35:13Z</time>
      </trkpt>
      <trkpt lat="42.91532" lon="-0.60121">
        <ele>1644.782</ele>
        <time>2021-06-30T10:35:23Z</time>
      </trkpt>
      <trkpt lat="42.91529" lon="-0.60103">
        <ele>1645.046</ele>
        <time>2021-06-30T10:35:33Z</time>
      </trkpt>
      <trkpt lat="42.91465" lon="-0.59985">
        <ele>1636.969</ele>
        <time>2021-06-30T10:35:43Z</time>
      </trkpt>
      <trkpt lat="42.9142" lon="-0.5998">
        <ele>1633.448</ele>
        <time>2021-06-30T10:35:53Z</time>
      </trkpt>
      <trkpt lat="42.91345" lon="-0.60002">
        <ele>1624.988</ele>
        <time>2021-06-30T10:36:03Z</time>
      </trkpt>
      <trkpt lat="42.91281" lon="-0.59986">
        <ele>1615.65</ele>
        <time>2021-06-30T10:36:13Z</time>
      </trkpt>
      <trkpt lat="42.91206" lon="-0.59903">
        <ele>1602.95</ele>
        <time>2021-06-30T10:36:23Z</time>
      </trkpt>
      <trkpt lat="42.9115" lon="-0.59876">
        <ele>1596.667</ele>
        <time>2021-06-30T10:36:33Z</time>
      </trkpt>
      <trkpt lat="42.91069" lon="-0.59896">
        <ele>1587.581</ele>
        <time>2021-06-30T10:36:43Z</time>
      </trkpt>
      <trkpt lat="42.91041" lon="-0.59925">
        <ele>1584.719</ele>
        <time>2021-06-30T10:36:53Z</time>
      </trkpt>
      <trkpt lat="42.90975" lon="-0.59924">
        <ele>1579.408</ele>
        <time>2021-06-30T10:37:03Z</time>
      </trkpt>
      <trkpt lat="42.90902" lon="-0.59872">
        <ele>1564.438</ele>
        <time>2021-06-30T10:37:13Z</time>
      </trkpt>
      <trkpt lat="42.90855" lon="-0.59888">
        <ele>1559.924</ele>
        <time>2021-06-30T10:37:23Z</time>
      </trkpt>
      <trkpt lat="42.90808" lon="-0.59866">
        <ele>1555.668</ele>
        <time>2021-06-30T10:37:33Z</time>
      </trkpt>
      <trkpt lat="42.90771" lon="-0.59892">
        <ele>1547.071</ele>
        <time>2021-06-30T10:37:43Z</time>
      </trkpt>
      <trkpt lat="42.90696" lon="-0.60003">
        <ele>1553.91</ele>
        <time>2021-06-30T10:37:53Z</time>
      </trkpt>
      <trkpt lat="42.90638" lon="-0.60059">
        <ele>1562.04</ele>
        <time>2021-06-30T10:38:03Z</time>
      </trkpt>
      <trkpt lat="42.90581" lon="-0.60088">
        <ele>1566.062</ele>
        <time>2021-06-30T10:38:13Z</time>
      </trkpt>
      <trkpt lat="42.90563" lon="-0.60117">
        <ele>1569.092</ele>
        <time>2021-06-30T10:38:23Z</time>
      </trkpt>
      <trkpt lat="42.90556" lon="-0.60162">
        <ele>1570.044</ele>
        <time>2021-06-30T10:38:33Z</time>
      </trkpt>
      <trkpt lat="42.9057" lon="-0.60149">
        <ele>1570.005</ele>
        <time>2021-06-30T10:38:43Z</time>
      </trkpt>
      <trkpt lat="42.9057" lon="-0.60135">
        <ele>1570.015</ele>
        <time>2021-06-30T10:38:53Z</time>
      </trkpt>
      <trkpt lat="42.90552" lon="-0.60172">
        <ele>1571.008</ele>
        <time>2021-06-30T10:39:03Z</time>
      </trkpt>
      <trkpt lat="42.90563" lon="-0.60161">
        <ele>1571.026</ele>
        <time>2021-06-30T10:39:13Z</time>
      </trkpt>
      <trkpt lat="42.90554" lon="-0.60151">
        <ele>1570.512</ele>
        <time>2021-06-30T10:39:23Z</time>
      </trkpt>
      <trkpt lat="42.90549" lon="-0.60207">
        <ele>1575.236</ele>
        <time>2021-06-30T10:39:33Z</time>
      </trkpt>
      <trkpt lat="42.90455" lon="-0.60337">
        <ele>1589.469</ele>
        <time>2021-06-30T10:39:43Z</time>
      </trkpt>
      <trkpt lat="42.90435" lon="-0.60379">
        <ele>1598.098</ele>
        <time>2021-06-30T10:39:53Z</time>
      </trkpt>
      <trkpt lat="42.90444" lon="-0.60381">
        <ele>1597.298</ele>
        <time>2021-06-30T10:40:03Z</time>
      </trkpt>
      <trkpt lat="42.90397" lon="-0.6042">
        <ele>1610.03</ele>
        <time>2021-06-30T10:40:13Z</time>
      </trkpt>
      <trkpt lat="42.90394" lon="-0.60447">
        <ele>1614.67</ele>
        <time>2021-06-30T10:40:23Z</time>
      </trkpt>
      <trkpt lat="42.90349" lon="-0.60474">
        <ele>1620.867</ele>
        <time>2021-06-30T10:40:33Z</time>
      </trkpt>
      <trkpt lat="42.90317" lon="-0.60471">
        <ele>1620.981</ele>
        <time>2021-06-30T10:40:43Z</time>
      </trkpt>
      <trkpt lat="42.90259" lon="-0.60418">
        <ele>1612.919</ele>
        <time>2021-06-30T10:40:53Z</time>
      </trkpt>
      <trkpt lat="42.90274" lon="-0.60277">
        <ele>1582.608</ele>
        <time>2021-06-30T10:41:03Z</time>
      </trkpt>
      <trkpt lat="42.90331" lon="-0.60257">
        <ele>1565.468</ele>
        <time>2021-06-30T10:41:13Z</time>
      </trkpt>
      <trkpt lat="42.90333" lon="-0.60237">
        <ele>1561.874</ele>
        <time>2021-06-30T10:41:23Z</time>
      </trkpt>
      <trkpt lat="42.90282" lon="-0.60025">
        <ele>1529.478</ele>
        <time>2021-06-30T10:41:33Z</time>
      </trkpt>
      <trkpt lat="42.90297" lon="-0.59894">
        <ele>1507.941</ele>
        <time>2021-06-30T10:41:43Z</time>
      </trkpt>
      <trkpt lat="42.9027" lon="-0.59848">
        <ele>1507.88</ele>
        <time>2021-06-30T10:41:53Z</time>
      </trkpt>
      <trkpt lat="42.90203" lon="-0.59803">
        <ele>1500.83</ele>
        <time>2021-06-30T10:42:03Z</time>
      </trkpt>
      <trkpt lat="42.90137" lon="-0.59728">
        <ele>1478.292</ele>
        <time>2021-06-30T10:42:13Z</time>
      </trkpt>
      <trkpt lat="42.90106" lon="-0.5961">
        <ele>1472.392</ele>
        <time>2021-06-30T10:42:23Z</time>
      </trkpt>
      <trkpt lat="42.9006" lon="-0.59552">
        <ele>1453.624</ele>
        <time>2021-06-30T10:42:33Z</time>
      </trkpt>
      <trkpt lat="42.90008" lon="-0.59514">
        <ele>1443.904</ele>
        <time>2021-06-30T10:42:43Z</time>
      </trkpt>
      <trkpt lat="42.90035" lon="-0.59265">
        <ele>1435.314</ele>
        <time>2021-06-30T10:42:53Z</time>
      </trkpt>
      <trkpt lat="42.90083" lon="-0.59229">
        <ele>1423.508</ele>
        <time>2021-06-30T10:43:03Z</time>
      </trkpt>
      <trkpt lat="42.90098" lon="-0.59231">
        <ele>1419.264</ele>
        <time>2021-06-30T10:43:13Z</time>
      </trkpt>
      <trkpt lat="42.90085" lon="-0.59184">
        <ele>1415.41</ele>
        <time>2021-06-30T10:43:23Z</time>
      </trkpt>
      <trkpt lat="42.90102" lon="-0.59162">
        <ele>1410.854</ele>
        <time>2021-06-30T10:43:33Z</time>
      </trkpt>
      <trkpt lat="42.90138" lon="-0.59177">
        <ele>1401.547</ele>
        <time>2021-06-30T10:43:43Z</time>
      </trkpt>
      <trkpt lat="42.90206" lon="-0.59305">
        <ele>1386.666</ele>
        <time>2021-06-30T10:43:53Z</time>
      </trkpt>
      <trkpt lat="42.90272" lon="-0.59335">
        <ele>1384.046</ele>
        <time>2021-06-30T10:44:03Z</time>
      </trkpt>
      <trkpt lat="42.90293" lon="-0.59359">
        <ele>1383.398</ele>
        <time>2021-06-30T10:44:13Z</time>
      </trkpt>
      <trkpt lat="42.90333" lon="-0.59346">
        <ele>1378.148</ele>
        <time>2021-06-30T10:44:23Z</time>
      </trkpt>
      <trkpt lat="42.90362" lon="-0.59359">
        <ele>1372.924</ele>
        <time>2021-06-30T10:44:33Z</time>
      </trkpt>
      <trkpt lat="42.90387" lon="-0.59405">
        <ele>1360.004</ele>
        <time>2021-06-30T10:44:43Z</time>
      </trkpt>
      <trkpt lat="42.90507" lon="-0.59523">
        <ele>1353.014</ele>
        <time>2021-06-30T10:44:53Z</time>
      </trkpt>
      <trkpt lat="42.906" lon="-0.59491">
        <ele>1361.008</ele>
        <time>2021-06-30T10:45:03Z</time>
      </trkpt>
      <trkpt lat="42.90659" lon="-0.59492">
        <ele>1360.094</ele>
        <time>2021-06-30T10:45:13Z</time>
      </trkpt>
      <trkpt lat="42.90705" lon="-0.59464">
        <ele>1361.04</ele>
        <time>2021-06-30T10:45:23Z</time>
      </trkpt>
      <trkpt lat="42.90774" lon="-0.59457">
        <ele>1357.134</ele>
        <time>2021-06-30T10:45:33Z</time>
      </trkpt>
      <trkpt lat="42.90864" lon="-0.59345">
        <ele>1341.637</ele>
        <time>2021-06-30T10:45:43Z</time>
      </trkpt>
      <trkpt lat="42.91012" lon="-0.59228">
        <ele>1350.026</ele>
        <time>2021-06-30T10:45:53Z</time>
      </trkpt>
      <trkpt lat="42.91044" lon="-0.59222">
        <ele>1349.816</ele>
        <time>2021-06-30T10:46:03Z</time>
      </trkpt>
      <trkpt lat="42.91092" lon="-0.59284">
        <ele>1344.188</ele>
        <time>2021-06-30T10:46:13Z</time>
      </trkpt>
      <trkpt lat="42.91155" lon="-0.59289">
        <ele>1339.438</ele>
        <time>2021-06-30T10:46:23Z</time>
      </trkpt>
      <trkpt lat="42.91217" lon="-0.5919">
        <ele>1321.198</ele>
        <time>2021-06-30T10:46:33Z</time>
      </trkpt>
      <trkpt lat="42.9129" lon="-0.59167">
        <ele>1298.915</ele>
        <time>2021-06-30T10:46:43Z</time>
      </trkpt>
      <trkpt lat="42.91346" lon="-0.59024">
        <ele>1261.826</ele>
        <time>2021-06-30T10:46:53Z</time>
      </trkpt>
      <trkpt lat="42.91335" lon="-0.58999">
        <ele>1251.808</ele>
        <time>2021-06-30T10:47:03Z</time>
      </trkpt>
      <trkpt lat="42.91369" lon="-0.58976">
        <ele>1242.571</ele>
        <time>2021-06-30T10:47:13Z</time>
      </trkpt>
      <trkpt lat="42.91385" lon="-0.58942">
        <ele>1232.647</ele>
        <time>2021-06-30T10:47:23Z</time>
      </trkpt>
      <trkpt lat="42.91429" lon="-0.58958">
        <ele>1224.251</ele>
        <time>2021-06-30T10:47:33Z</time>
      </trkpt>
      <trkpt lat="42.91536" lon="-0.5905">
        <ele>1203.074</ele>
        <time>2021-06-30T10:47:43Z</time>
      </trkpt>
      <trkpt lat="42.91505" lon="-0.58899">
        <ele>1179.293</ele>
        <time>2021-06-30T10:47:53Z</time>
      </trkpt>
      <trkpt lat="42.91552" lon="-0.58929">
        <ele>1165.213</ele>
        <time>2021-06-30T10:48:03Z</time>
      </trkpt>
      <trkpt lat="42.91566" lon="-0.58923">
        <ele>1156.115</ele>
        <time>2021-06-30T10:48:13Z</time>
      </trkpt>
      <trkpt lat="42.91561" lon="-0.58902">
        <ele>1153.565</ele>
        <time>2021-06-30T10:48:23Z</time>
      </trkpt>
      <trkpt lat="42.91573" lon="-0.58908">
        <ele>1150.997</ele>
        <time>2021-06-30T10:48:33Z</time>
      </trkpt>
      <trkpt lat="42.91584" lon="-0.58892">
        <ele>1141.923</ele>
        <time>2021-06-30T10:48:43Z</time>
      </trkpt>
      <trkpt lat="42.91561" lon="-0.5879">
        <ele>1116.025</ele>
        <time>2021-06-30T10:48:53Z</time>
      </trkpt>
      <trkpt lat="42.91606" lon="-0.58804">
        <ele>1103.008</ele>
        <time>2021-06-30T10:49:03Z</time>
      </trkpt>
      <trkpt lat="42.91618" lon="-0.58779">
        <ele>1090.691</ele>
        <time>2021-06-30T10:49:13Z</time>
      </trkpt>
      <trkpt lat="42.91636" lon="-0.58788">
        <ele>1084.277</ele>
        <time>2021-06-30T10:49:23Z</time>
      </trkpt>
      <trkpt lat="42.91617" lon="-0.58711">
        <ele>1076.371</ele>
        <time>2021-06-30T10:49:33Z</time>
      </trkpt>
      <trkpt lat="42.91635" lon="-0.58699">
        <ele>1064.274</ele>
        <time>2021-06-30T10:49:43Z</time>
      </trkpt>
      <trkpt lat="42.91616" lon="-0.5866">
        <ele>1054.813</ele>
        <time>2021-06-30T10:49:53Z</time>
      </trkpt>
      <trkpt lat="42.91584" lon="-0.58423">
        <ele>1001.263</ele>
        <time>2021-06-30T10:50:03Z</time>
      </trkpt>
      <trkpt lat="42.91709" lon="-0.58525">
        <ele>972.525</ele>
        <time>2021-06-30T10:50:13Z</time>
      </trkpt>
      <trkpt lat="42.91687" lon="-0.58446">
        <ele>955.815</ele>
        <time>2021-06-30T10:50:23Z</time>
      </trkpt>
      <trkpt lat="42.91711" lon="-0.58461">
        <ele>947.428</ele>
        <time>2021-06-30T10:50:33Z</time>
      </trkpt>
      <trkpt lat="42.91721" lon="-0.58426">
        <ele>940.489</ele>
        <time>2021-06-30T10:50:43Z</time>
      </trkpt>
      <trkpt lat="42.91705" lon="-0.58361">
        <ele>931.917</ele>
        <time>2021-06-30T10:50:53Z</time>
      </trkpt>
      <trkpt lat="42.91679" lon="-0.58336">
        <ele>928.408</ele>
        <time>2021-06-30T10:51:03Z</time>
      </trkpt>
      <trkpt lat="42.91714" lon="-0.58348">
        <ele>922.984</ele>
        <time>2021-06-30T10:51:13Z</time>
      </trkpt>
      <trkpt lat="42.91713" lon="-0.58339">
        <ele>920.91</ele>
        <time>2021-06-30T10:51:23Z</time>
      </trkpt>
      <trkpt lat="42.91689" lon="-0.58321">
        <ele>919.364</ele>
        <time>2021-06-30T10:51:33Z</time>
      </trkpt>
      <trkpt lat="42.91598" lon="-0.58166">
        <ele>897.037</ele>
        <time>2021-06-30T10:51:43Z</time>
      </trkpt>
      <trkpt lat="42.91558" lon="-0.58131">
        <ele>893.986</ele>
        <time>2021-06-30T10:51:53Z</time>
      </trkpt>
      <trkpt lat="42.9157" lon="-0.58132">
        <ele>889.146</ele>
        <time>2021-06-30T10:52:03Z</time>
      </trkpt>
      <trkpt lat="42.91544" lon="-0.581">
        <ele>885.468</ele>
        <time>2021-06-30T10:52:13Z</time>
      </trkpt>
      <trkpt lat="42.91513" lon="-0.58005">
        <ele>866.228</ele>
        <time>2021-06-30T10:52:23Z</time>
      </trkpt>
      <trkpt lat="42.91453" lon="-0.57957">
        <ele>856.364</ele>
        <time>2021-06-30T10:52:33Z</time>
      </trkpt>
      <trkpt lat="42.91464" lon="-0.57937">
        <ele>855.506</ele>
        <time>2021-06-30T10:52:43Z</time>
      </trkpt>
      <trkpt lat="42.91457" lon="-0.57914">
        <ele>854.716</ele>
        <time>2021-06-30T10:52:53Z</time>
      </trkpt>
      <trkpt lat="42.91366" lon="-0.57836">
        <ele>850.608</ele>
        <time>2021-06-30T10:53:03Z</time>
      </trkpt>
      <trkpt lat="42.9131" lon="-0.57761">
        <ele>859.618</ele>
        <time>2021-06-30T10:53:13Z</time>
      </trkpt>
      <trkpt lat="42.9123" lon="-0.57757">
        <ele>861.964</ele>
        <time>2021-06-30T10:53:23Z</time>
      </trkpt>
      <trkpt lat="42.91118" lon="-0.57834">
        <ele>844.038</ele>
        <time>2021-06-30T10:53:33Z</time>
      </trkpt>
      <trkpt lat="42.90979" lon="-0.57823">
        <ele>819.511</ele>
        <time>2021-06-30T10:53:43Z</time>
      </trkpt>
      <trkpt lat="42.91034" lon="-0.57833">
        <ele>824.01</ele>
        <time>2021-06-30T10:53:53Z</time>
      </trkpt>
      <trkpt lat="42.91079" lon="-0.57784">
        <ele>821.15</ele>
        <time>2021-06-30T10:54:03Z</time>
      </trkpt>
      <trkpt lat="42.91027" lon="-0.57785">
        <ele>806.082</ele>
        <time>2021-06-30T10:54:13Z</time>
      </trkpt>
      <trkpt lat="42.90965" lon="-0.57741">
        <ele>793.692</ele>
        <time>2021-06-30T10:54:23Z</time>
      </trkpt>
      <trkpt lat="42.90954" lon="-0.57687">
        <ele>786.166</ele>
        <time>2021-06-30T10:54:33Z</time>
      </trkpt>
      <trkpt lat="42.9097" lon="-0.57706">
        <ele>785.329</ele>
        <time>2021-06-30T10:54:43Z</time>
      </trkpt>
      <trkpt lat="42.91011" lon="-0.57659">
        <ele>775.921</ele>
        <time>2021-06-30T10:54:53Z</time>
      </trkpt>
      <trkpt lat="42.91012" lon="-0.57614">
        <ele>771.808</ele>
        <time>2021-06-30T10:55:03Z</time>
      </trkpt>
      <trkpt lat="42.91032" lon="-0.57637">
        <ele>764.338</ele>
        <time>2021-06-30T10:55:13Z</time>
      </trkpt>
      <trkpt lat="42.91032" lon="-0.57613">
        <ele>761.884</ele>
        <time>2021-06-30T10:55:23Z</time>
      </trkpt>
      <trkpt lat="42.91005" lon="-0.57559">
        <ele>749.368</ele>
        <time>2021-06-30T10:55:33Z</time>
      </trkpt>
      <trkpt lat="42.9095" lon="-0.57503">
        <ele>734.911</ele>
        <time>2021-06-30T10:55:43Z</time>
      </trkpt>
      <trkpt lat="42.90914" lon="-0.57505">
        <ele>728.29</ele>
        <time>2021-06-30T10:55:53Z</time>
      </trkpt>
      <trkpt lat="42.90894" lon="-0.5753">
        <ele>722.45</ele>
        <time>2021-06-30T10:56:03Z</time>
      </trkpt>
      <trkpt lat="42.90884" lon="-0.57524">
        <ele>720.422</ele>
        <time>2021-06-30T10:56:13Z</time>
      </trkpt>
      <trkpt lat="42.90885" lon="-0.57452">
        <ele>716.062</ele>
        <time>2021-06-30T10:56:23Z</time>
      </trkpt>
      <trkpt lat="42.90828" lon="-0.57368">
        <ele>702.195</ele>
        <time>2021-06-30T10:56:33Z</time>
      </trkpt>
      <trkpt lat="42.90838" lon="-0.57321">
        <ele>694.949</ele>
        <time>2021-06-30T10:56:43Z</time>
      </trkpt>
      <trkpt lat="42.9083" lon="-0.57262">
        <ele>686.123</ele>
        <time>2021-06-30T10:56:53Z</time>
      </trkpt>
      <trkpt lat="42.90844" lon="-0.57245">
        <ele>681.908</ele>
        <time>2021-06-30T10:57:03Z</time>
      </trkpt>
      <trkpt lat="42.90873" lon="-0.57255">
        <ele>682.021</ele>
        <time>2021-06-30T10:57:13Z</time>
      </trkpt>
      <trkpt lat="42.9084" lon="-0.57239">
        <ele>680.757</ele>
        <time>2021-06-30T10:57:23Z</time>
      </trkpt>
      <trkpt lat="42.90989" lon="-0.57315">
        <ele>684.011</ele>
        <time>2021-06-30T10:57:33Z</time>
      </trkpt>
      <trkpt lat="42.90995" lon="-0.57366">
        <ele>681.124</ele>
        <time>2021-06-30T10:57:43Z</time>
      </trkpt>
      <trkpt lat="42.91019" lon="-0.57372">
        <ele>678.493</ele>
        <time>2021-06-30T10:57:53Z</time>
      </trkpt>
      <trkpt lat="42.91026" lon="-0.57362">
        <ele>677.253</ele>
        <time>2021-06-30T10:58:03Z</time>
      </trkpt>
      <trkpt lat="42.91014" lon="-0.57345">
        <ele>672.915</ele>
        <time>2021-06-30T10:58:13Z</time>
      </trkpt>
      <trkpt lat="42.91064" lon="-0.57248">
        <ele>654.635</ele>
        <time>2021-06-30T10:58:23Z</time>
      </trkpt>
      <trkpt lat="42.91139" lon="-0.57238">
        <ele>641.479</ele>
        <time>2021-06-30T10:58:33Z</time>
      </trkpt>
      <trkpt lat="42.91148" lon="-0.57207">
        <ele>637.405</ele>
        <time>2021-06-30T10:58:43Z</time>
      </trkpt>
      <trkpt lat="42.91116" lon="-0.57188">
        <ele>633.025</ele>
        <time>2021-06-30T10:58:53Z</time>
      </trkpt>
      <trkpt lat="42.91331" lon="-0.57367">
        <ele>628.008</ele>
        <time>2021-06-30T10:59:03Z</time>
      </trkpt>
      <trkpt lat="42.9142" lon="-0.57422">
        <ele>627.599</ele>
        <time>2021-06-30T10:59:13Z</time>
      </trkpt>
      <trkpt lat="42.91557" lon="-0.57501">
        <ele>626.355</ele>
        <time>2021-06-30T10:59:23Z</time>
      </trkpt>
      <trkpt lat="42.91811" lon="-0.57596">
        <ele>619.999</ele>
        <time>2021-06-30T10:59:33Z</time>
      </trkpt>
      <trkpt lat="42.92012" lon="-0.57719">
        <ele>609.142</ele>
        <time>2021-06-30T10:59:43Z</time>
      </trkpt>
      <trkpt lat="42.9216" lon="-0.57787">
        <ele>606.741</ele>
        <time>2021-06-30T10:59:53Z</time>
      </trkpt>
      <trkpt lat="42.92215" lon="-0.57833">
        <ele>605.591</ele>
        <time>2021-06-30T11:00:03Z</time>
      </trkpt>
      <trkpt lat="42.92299" lon="-0.57855">
        <ele>604.753</ele>
        <time>2021-06-30T11:00:13Z</time>
      </trkpt>
      <trkpt lat="42.92352" lon="-0.57918">
        <ele>603.143</ele>
        <time>2021-06-30T11:00:23Z</time>
      </trkpt>
      <trkpt lat="42.92426" lon="-0.57964">
        <ele>590.092</ele>
        <time>2021-06-30T11:00:33Z</time>
      </trkpt>
      <trkpt lat="42.92508" lon="-0.57905">
        <ele>589.073</ele>
        <time>2021-06-30T11:00:43Z</time>
      </trkpt>
      <trkpt lat="42.92519" lon="-0.57918">
        <ele>588.02</ele>
        <time>2021-06-30T11:00:53Z</time>
      </trkpt>
      <trkpt lat="42.92513" lon="-0.58007">
        <ele>587.908</ele>
        <time>2021-06-30T11:01:03Z</time>
      </trkpt>
      <trkpt lat="42.92555" lon="-0.58017">
        <ele>587.131</ele>
        <time>2021-06-30T11:01:13Z</time>
      </trkpt>
      <trkpt lat="42.92577" lon="-0.58067">
        <ele>586.027</ele>
        <time>2021-06-30T11:01:23Z</time>
      </trkpt>
      <trkpt lat="42.92627" lon="-0.58096">
        <ele>588.051</ele>
        <time>2021-06-30T11:01:33Z</time>
      </trkpt>
      <trkpt lat="42.92659" lon="-0.58142">
        <ele>592.654</ele>
        <time>2021-06-30T11:01:43Z</time>
      </trkpt>
      <trkpt lat="42.92692" lon="-0.58136">
        <ele>594.773</ele>
        <time>2021-06-30T11:01:53Z</time>
      </trkpt>
      <trkpt lat="42.9277" lon="-0.58192">
        <ele>597.073</ele>
        <time>2021-06-30T11:02:03Z</time>
      </trkpt>
      <trkpt lat="42.92814" lon="-0.58188">
        <ele>595.765</ele>
        <time>2021-06-30T11:02:13Z</time>
      </trkpt>
      <trkpt lat="42.92873" lon="-0.58245">
        <ele>594.865</ele>
        <time>2021-06-30T11:02:23Z</time>
      </trkpt>
      <trkpt lat="42.92954" lon="-0.5829">
        <ele>600.089</ele>
        <time>2021-06-30T11:02:33Z</time>
      </trkpt>
      <trkpt lat="42.93155" lon="-0.58549">
        <ele>598.706</ele>
        <time>2021-06-30T11:02:43Z</time>
      </trkpt>
      <trkpt lat="42.93193" lon="-0.5857">
        <ele>595.726</ele>
        <time>2021-06-30T11:02:53Z</time>
      </trkpt>
      <trkpt lat="42.93238" lon="-0.58626">
        <ele>585.508</ele>
        <time>2021-06-30T11:03:03Z</time>
      </trkpt>
      <trkpt lat="42.9332" lon="-0.58665">
        <ele>582.24</ele>
        <time>2021-06-30T11:03:13Z</time>
      </trkpt>
      <trkpt lat="42.9334" lon="-0.58724">
        <ele>583.726</ele>
        <time>2021-06-30T11:03:23Z</time>
      </trkpt>
      <trkpt lat="42.93399" lon="-0.5873">
        <ele>577.89</ele>
        <time>2021-06-30T11:03:33Z</time>
      </trkpt>
      <trkpt lat="42.93456" lon="-0.58766">
        <ele>566.323</ele>
        <time>2021-06-30T11:03:43Z</time>
      </trkpt>
      <trkpt lat="42.93489" lon="-0.58846">
        <ele>560.872</ele>
        <time>2021-06-30T11:03:53Z</time>
      </trkpt>
      <trkpt lat="42.93527" lon="-0.58897">
        <ele>559.772</ele>
        <time>2021-06-30T11:04:03Z</time>
      </trkpt>
      <trkpt lat="42.93561" lon="-0.59026">
        <ele>557.494</ele>
        <time>2021-06-30T11:04:13Z</time>
      </trkpt>
      <trkpt lat="42.93578" lon="-0.59026">
        <ele>556.624</ele>
        <time>2021-06-30T11:04:23Z</time>
      </trkpt>
      <trkpt lat="42.93578" lon="-0.59047">
        <ele>561.048</ele>
        <time>2021-06-30T11:04:33Z</time>
      </trkpt>
      <trkpt lat="42.93673" lon="-0.5915">
        <ele>557.161</ele>
        <time>2021-06-30T11:04:43Z</time>
      </trkpt>
      <trkpt lat="42.93722" lon="-0.59275">
        <ele>553.017</ele>
        <time>2021-06-30T11:04:53Z</time>
      </trkpt>
      <trkpt lat="42.93856" lon="-0.59463">
        <ele>551.808</ele>
        <time>2021-06-30T11:05:03Z</time>
      </trkpt>
      <trkpt lat="42.93887" lon="-0.59615">
        <ele>554.826</ele>
        <time>2021-06-30T11:05:13Z</time>
      </trkpt>
      <trkpt lat="42.93838" lon="-0.59753">
        <ele>563.042</ele>
        <time>2021-06-30T11:05:23Z</time>
      </trkpt>
      <trkpt lat="42.93829" lon="-0.59832">
        <ele>561.146</ele>
        <time>2021-06-30T11:05:33Z</time>
      </trkpt>
      <trkpt lat="42.93821" lon="-0.59975">
        <ele>548.799</ele>
        <time>2021-06-30T11:05:43Z</time>
      </trkpt>
      <trkpt lat="42.93851" lon="-0.60096">
        <ele>547.098</ele>
        <time>2021-06-30T11:05:53Z</time>
      </trkpt>
      <trkpt lat="42.93866" lon="-0.60123">
        <ele>545.328</ele>
        <time>2021-06-30T11:06:03Z</time>
      </trkpt>
      <trkpt lat="42.93888" lon="-0.6013">
        <ele>543.18</ele>
        <time>2021-06-30T11:06:13Z</time>
      </trkpt>
      <trkpt lat="42.93977" lon="-0.60284">
        <ele>540.02</ele>
        <time>2021-06-30T11:06:23Z</time>
      </trkpt>
      <trkpt lat="42.94051" lon="-0.60461">
        <ele>537.089</ele>
        <time>2021-06-30T11:06:33Z</time>
      </trkpt>
      <trkpt lat="42.94124" lon="-0.60573">
        <ele>537.006</ele>
        <time>2021-06-30T11:06:43Z</time>
      </trkpt>
      <trkpt lat="42.94135" lon="-0.60622">
        <ele>537.026</ele>
        <time>2021-06-30T11:06:53Z</time>
      </trkpt>
      <trkpt lat="42.94166" lon="-0.60656">
        <ele>537.008</ele>
        <time>2021-06-30T11:07:03Z</time>
      </trkpt>
      <trkpt lat="42.94199" lon="-0.60666">
        <ele>533.55</ele>
        <time>2021-06-30T11:07:13Z</time>
      </trkpt>
      <trkpt lat="42.94236" lon="-0.60717">
        <ele>532.036</ele>
        <time>2021-06-30T11:07:23Z</time>
      </trkpt>
      <trkpt lat="42.94277" lon="-0.60842">
        <ele>531.06</ele>
        <time>2021-06-30T11:07:33Z</time>
      </trkpt>
      <trkpt lat="42.94295" lon="-0.60831">
        <ele>530.123</ele>
        <time>2021-06-30T11:07:43Z</time>
      </trkpt>
      <trkpt lat="42.94279" lon="-0.60852">
        <ele>531.042</ele>
        <time>2021-06-30T11:07:53Z</time>
      </trkpt>
      <trkpt lat="42.94255" lon="-0.60744">
        <ele>531.022</ele>
        <time>2021-06-30T11:08:03Z</time>
      </trkpt>
      <trkpt lat="42.94228" lon="-0.60769">
        <ele>536.414</ele>
        <time>2021-06-30T11:08:13Z</time>
      </trkpt>
      <trkpt lat="42.94241" lon="-0.60796">
        <ele>539.624</ele>
        <time>2021-06-30T11:08:23Z</time>
      </trkpt>
      <trkpt lat="42.9423" lon="-0.6084">
        <ele>555.556</ele>
        <time>2021-06-30T11:08:33Z</time>
      </trkpt>
      <trkpt lat="42.94269" lon="-0.6095">
        <ele>553.059</ele>
        <time>2021-06-30T11:08:43Z</time>
      </trkpt>
      <trkpt lat="42.94346" lon="-0.61004">
        <ele>547.914</ele>
        <time>2021-06-30T11:08:53Z</time>
      </trkpt>
      <trkpt lat="42.94389" lon="-0.61093">
        <ele>540.008</ele>
        <time>2021-06-30T11:09:03Z</time>
      </trkpt>
      <trkpt lat="42.94428" lon="-0.61091">
        <ele>532.097</ele>
        <time>2021-06-30T11:09:13Z</time>
      </trkpt>
      <trkpt lat="42.94407" lon="-0.61127">
        <ele>531.813</ele>
        <time>2021-06-30T11:09:23Z</time>
      </trkpt>
      <trkpt lat="42.94417" lon="-0.61143">
        <ele>533.567</ele>
        <time>2021-06-30T11:09:33Z</time>
      </trkpt>
      <trkpt lat="42.94539" lon="-0.611">
        <ele>531.47</ele>
        <time>2021-06-30T11:09:43Z</time>
      </trkpt>
      <trkpt lat="42.94634" lon="-0.61185">
        <ele>528.789</ele>
        <time>2021-06-30T11:09:53Z</time>
      </trkpt>
      <trkpt lat="42.94659" lon="-0.61155">
        <ele>526.869</ele>
        <time>2021-06-30T11:10:03Z</time>
      </trkpt>
      <trkpt lat="42.94639" lon="-0.6112">
        <ele>525.411</ele>
        <time>2021-06-30T11:10:13Z</time>
      </trkpt>
    </trkseg>
  </trk>
</gpx>